createdAt,value
2023-03-15T00:00:34.084Z,83.30
2023-03-15T00:03:03.980Z,83.10
2023-03-15T00:05:31.857Z,82.12
2023-03-15T00:07:58.828Z,81.42
2023-03-15T00:10:25.265Z,82.53
2023-03-15T00:12:51.668Z,83.26
2023-03-15T00:15:18.102Z,82.15
2023-03-15T00:17:45.019Z,81.47
2023-03-15T00:20:14.745Z,79.76
2023-03-15T00:22:42.341Z,79.03
2023-03-15T00:25:09.266Z,80.14
2023-03-15T00:27:35.609Z,78.93
2023-03-15T00:30:01.975Z,78.14
2023-03-15T00:32:28.385Z,79.17
2023-03-15T00:34:54.735Z,78.42
2023-03-15T00:37:21.962Z,77.31
2023-03-15T00:39:48.631Z,77.91
2023-03-15T00:42:15.558Z,77.25
2023-03-15T00:44:45.172Z,77.75
2023-03-15T00:47:13.057Z,77.52
2023-03-15T00:49:41.398Z,77.03
2023-03-15T00:52:08.032Z,76.49
2023-03-15T00:54:34.436Z,76.95
2023-03-15T00:57:03.145Z,76.45
2023-03-15T00:59:35.041Z,76.59
2023-03-15T01:02:02.957Z,77.59
2023-03-15T01:04:29.528Z,78.00
2023-03-15T01:06:55.851Z,77.92
2023-03-15T01:09:22.209Z,77.76
2023-03-15T01:11:48.637Z,76.93
2023-03-15T01:14:15.154Z,77.17
2023-03-15T01:16:41.593Z,77.56
2023-03-15T01:19:07.927Z,77.14
2023-03-15T01:21:34.259Z,77.17
2023-03-15T01:24:00.648Z,76.36
2023-03-15T01:26:26.983Z,76.42
2023-03-15T01:28:53.350Z,75.05
2023-03-15T01:31:25.580Z,74.08
2023-03-15T01:33:52.272Z,72.54
2023-03-15T01:36:18.912Z,70.86
2023-03-15T01:38:45.495Z,71.95
2023-03-15T01:41:13.433Z,71.37
2023-03-15T01:43:46.934Z,71.01
2023-03-15T01:46:23.944Z,70.91
2023-03-15T01:49:08.762Z,70.77
2023-03-15T01:51:55.859Z,70.40
2023-03-15T01:54:28.786Z,69.68
2023-03-15T01:57:03.979Z,69.54
2023-03-15T01:59:36.597Z,69.78
2023-03-15T02:02:05.048Z,68.41
2023-03-15T02:04:40.872Z,67.41
2023-03-15T02:07:09.795Z,67.89
2023-03-15T02:09:44.113Z,67.26
2023-03-15T02:12:11.148Z,67.64
2023-03-15T02:14:38.185Z,67.46
2023-03-15T02:17:04.700Z,67.65
2023-03-15T02:19:41.741Z,67.59
2023-03-15T02:22:23.018Z,66.07
2023-03-15T02:25:16.833Z,65.73
2023-03-15T02:27:44.631Z,66.72
2023-03-15T02:30:11.954Z,66.91
2023-03-15T02:32:38.861Z,66.97
2023-03-15T02:35:05.559Z,67.28
2023-03-15T02:37:32.299Z,67.31
2023-03-15T02:39:58.687Z,67.67
2023-03-15T02:42:25.609Z,66.45
2023-03-15T02:44:54.636Z,66.53
2023-03-15T02:47:31.561Z,66.35
2023-03-15T02:49:58.021Z,66.40
2023-03-15T02:52:26.191Z,66.02
2023-03-15T02:54:54.107Z,66.19
2023-03-15T02:57:20.676Z,66.70
2023-03-15T02:59:48.522Z,67.25
2023-03-15T03:02:14.881Z,66.59
2023-03-15T03:04:41.759Z,67.36
2023-03-15T03:07:08.461Z,67.86
2023-03-15T03:09:34.890Z,67.86
2023-03-15T03:12:01.320Z,67.73
2023-03-15T03:14:27.692Z,67.81
2023-03-15T03:16:54.131Z,67.06
2023-03-15T03:19:25.379Z,67.48
2023-03-15T03:21:53.460Z,67.24
2023-03-15T03:24:20.308Z,67.37
2023-03-15T03:26:47.038Z,67.50
2023-03-15T03:29:17.776Z,67.28
2023-03-15T03:31:44.711Z,66.69
2023-03-15T03:34:14.492Z,66.72
2023-03-15T03:36:42.758Z,67.09
2023-03-15T03:39:09.874Z,67.42
2023-03-15T03:41:36.370Z,67.54
2023-03-15T03:44:03.027Z,67.48
2023-03-15T03:46:29.699Z,67.73
2023-03-15T03:48:58.927Z,68.12
2023-03-15T03:51:25.358Z,67.98
2023-03-15T03:53:51.682Z,67.80
2023-03-15T03:56:18.068Z,68.09
2023-03-15T03:58:44.445Z,68.61
2023-03-15T04:01:11.638Z,68.59
2023-03-15T04:03:38.020Z,68.75
2023-03-15T04:06:05.498Z,68.94
2023-03-15T04:08:31.867Z,68.54
2023-03-15T04:10:58.251Z,68.63
2023-03-15T04:13:25.425Z,68.77
2023-03-15T04:15:52.412Z,69.38
2023-03-15T04:18:18.842Z,69.05
2023-03-15T04:20:48.346Z,69.15
2023-03-15T04:23:16.108Z,68.80
2023-03-15T04:25:42.589Z,69.39
2023-03-15T04:28:10.669Z,68.83
2023-03-15T04:30:37.707Z,68.74
2023-03-15T04:33:04.544Z,69.33
2023-03-15T04:35:34.177Z,68.77
2023-03-15T04:38:00.883Z,69.00
2023-03-15T04:40:27.741Z,69.29
2023-03-15T04:42:55.406Z,69.76
2023-03-15T04:45:25.950Z,69.30
2023-03-15T04:47:52.961Z,69.05
2023-03-15T04:50:21.003Z,68.92
2023-03-15T04:52:48.124Z,69.19
2023-03-15T04:55:14.733Z,69.36
2023-03-15T04:57:41.301Z,69.01
2023-03-15T05:00:12.871Z,68.25
2023-03-15T05:02:41.387Z,68.05
2023-03-15T05:05:08.964Z,68.36
2023-03-15T05:07:36.226Z,68.94
2023-03-15T05:10:03.232Z,69.24
2023-03-15T05:12:29.623Z,68.96
2023-03-15T05:14:56.216Z,69.20
2023-03-15T05:17:22.855Z,69.18
2023-03-15T05:19:49.721Z,69.37
2023-03-15T05:22:16.060Z,69.75
2023-03-15T05:24:43.685Z,69.40
2023-03-15T05:27:11.896Z,69.79
2023-03-15T05:29:38.221Z,69.39
2023-03-15T05:32:05.174Z,69.69
2023-03-15T05:34:32.174Z,69.67
2023-03-15T05:36:59.373Z,69.52
2023-03-15T05:39:25.809Z,69.75
2023-03-15T05:41:52.551Z,69.98
2023-03-15T05:44:18.976Z,71.11
2023-03-15T05:46:45.300Z,70.55
2023-03-15T05:49:11.621Z,70.98
2023-03-15T05:51:37.982Z,70.80
2023-03-15T05:54:04.827Z,70.87
2023-03-15T05:56:31.277Z,71.03
2023-03-15T05:58:57.573Z,71.22
2023-03-15T06:01:23.894Z,71.18
2023-03-15T06:03:50.567Z,71.24
2023-03-15T06:06:16.918Z,71.19
2023-03-15T06:08:43.256Z,71.27
2023-03-15T06:11:09.578Z,71.09
2023-03-15T06:13:35.930Z,70.71
2023-03-15T06:16:02.348Z,70.74
2023-03-15T06:18:28.685Z,70.22
2023-03-15T06:20:55.036Z,70.33
2023-03-15T06:23:21.409Z,69.73
2023-03-15T06:25:47.778Z,68.82
2023-03-15T06:28:14.319Z,69.09
2023-03-15T06:30:41.503Z,68.67
2023-03-15T06:33:07.891Z,68.80
2023-03-15T06:35:34.284Z,68.62
2023-03-15T06:38:01.040Z,68.42
2023-03-15T06:40:27.417Z,68.92
2023-03-15T06:42:54.507Z,70.88
2023-03-15T06:45:20.864Z,70.82
2023-03-15T06:47:47.180Z,70.52
2023-03-15T06:50:13.493Z,69.99
2023-03-15T06:52:39.851Z,69.00
2023-03-15T06:55:06.591Z,69.89
2023-03-15T06:57:33.099Z,69.95
2023-03-15T06:59:59.486Z,69.79
2023-03-15T07:02:25.842Z,69.23
2023-03-15T07:04:52.359Z,69.43
2023-03-15T07:07:18.682Z,69.13
2023-03-15T07:09:45.058Z,69.08
2023-03-15T07:12:11.755Z,69.61
2023-03-15T07:14:38.104Z,69.14
2023-03-15T07:17:04.620Z,69.27
2023-03-15T07:19:30.993Z,68.80
2023-03-15T07:21:57.332Z,68.19
2023-03-15T07:24:23.689Z,68.47
2023-03-15T07:26:54.605Z,69.14
2023-03-15T07:29:20.923Z,68.59
2023-03-15T07:31:47.318Z,68.40
2023-03-15T07:34:13.652Z,68.44
2023-03-15T07:36:39.985Z,67.87
2023-03-15T07:39:06.498Z,66.85
2023-03-15T07:41:32.833Z,66.45
2023-03-15T07:43:59.412Z,66.56
2023-03-15T07:46:26.004Z,66.52
2023-03-15T07:48:52.407Z,66.55
2023-03-15T07:51:18.717Z,65.82
2023-03-15T07:53:45.225Z,67.54
2023-03-15T07:56:11.610Z,67.07
2023-03-15T07:58:37.965Z,67.60
2023-03-15T08:01:04.503Z,67.01
2023-03-15T08:03:31.468Z,67.16
2023-03-15T08:05:57.851Z,66.87
2023-03-15T08:08:24.213Z,68.38
2023-03-15T08:10:50.537Z,68.46
2023-03-15T08:13:16.904Z,67.61
2023-03-15T08:15:46.835Z,67.25
2023-03-15T08:18:14.057Z,66.50
2023-03-15T08:20:40.382Z,67.48
2023-03-15T08:23:06.747Z,66.73
2023-03-15T08:25:33.155Z,68.08
2023-03-15T08:27:59.579Z,67.90
2023-03-15T08:30:25.980Z,67.43
2023-03-15T08:32:52.482Z,66.27
2023-03-15T08:35:21.389Z,67.22
2023-03-15T08:37:48.008Z,67.04
2023-03-15T08:40:17.739Z,67.80
2023-03-15T08:42:44.184Z,66.64
2023-03-15T08:45:11.229Z,66.99
2023-03-15T08:47:37.997Z,66.95
2023-03-15T08:50:06.461Z,66.81
2023-03-15T08:52:32.812Z,66.52
2023-03-15T08:54:59.184Z,65.92
2023-03-15T08:57:25.875Z,65.96
2023-03-15T08:59:53.098Z,64.37
2023-03-15T09:02:19.513Z,65.78
2023-03-15T09:04:46.082Z,65.10
2023-03-15T09:07:12.459Z,64.93
2023-03-15T09:09:38.891Z,63.95
2023-03-15T09:12:05.530Z,62.80
2023-03-15T09:14:31.852Z,63.45
2023-03-15T09:16:58.248Z,62.36
2023-03-15T09:19:24.740Z,63.41
2023-03-15T09:21:51.265Z,62.46
2023-03-15T09:24:18.161Z,62.58
2023-03-15T09:26:44.557Z,59.93
2023-03-15T09:29:10.906Z,59.90
2023-03-15T09:31:37.255Z,58.88
2023-03-15T09:34:03.598Z,59.70
2023-03-15T09:36:29.968Z,57.64
2023-03-15T09:38:57.011Z,55.75
2023-03-15T09:41:39.897Z,56.20
2023-03-15T09:44:43.480Z,53.84
2023-03-15T09:47:26.691Z,53.72
2023-03-15T09:50:06.047Z,52.83
2023-03-15T09:52:44.269Z,52.74
2023-03-15T09:55:23.456Z,51.83
2023-03-15T09:57:57.951Z,51.99
2023-03-15T10:00:39.443Z,51.68
2023-03-15T10:03:09.759Z,50.02
2023-03-15T10:05:42.080Z,50.74
2023-03-15T10:08:11.574Z,51.61
2023-03-15T10:10:43.702Z,50.57
2023-03-15T10:13:12.741Z,50.11
2023-03-15T10:16:05.605Z,48.67
2023-03-15T10:18:59.917Z,47.61
2023-03-15T10:21:49.435Z,45.94
2023-03-15T10:24:30.310Z,45.56
2023-03-15T10:27:14.693Z,46.46
2023-03-15T10:29:41.216Z,46.58
2023-03-15T10:32:19.166Z,46.26
2023-03-15T10:34:52.759Z,46.48
2023-03-15T10:37:20.032Z,44.73
2023-03-15T10:39:58.878Z,45.95
2023-03-15T10:42:29.682Z,45.81
2023-03-15T10:44:56.924Z,45.37
2023-03-15T10:47:25.186Z,46.34
2023-03-15T10:49:59.217Z,45.26
2023-03-15T10:52:38.861Z,45.32
2023-03-15T10:55:18.486Z,44.33
2023-03-15T10:57:55.290Z,43.20
2023-03-15T11:00:29.399Z,43.04
2023-03-15T11:03:15.433Z,44.22
2023-03-15T11:05:47.879Z,42.48
2023-03-15T11:08:18.363Z,43.90
2023-03-15T11:10:46.474Z,42.47
2023-03-15T11:13:20.536Z,43.20
2023-03-15T11:15:54.797Z,43.48
2023-03-15T11:18:47.487Z,43.95
2023-03-15T11:21:16.085Z,42.96
2023-03-15T11:23:47.530Z,41.88
2023-03-15T11:26:29.575Z,42.63
2023-03-15T11:29:07.896Z,42.61
2023-03-15T11:31:35.837Z,43.47
2023-03-15T11:34:27.241Z,44.01
2023-03-15T11:37:08.014Z,42.50
2023-03-15T11:40:11.180Z,41.72
2023-03-15T11:42:48.202Z,41.32
2023-03-15T11:45:26.775Z,41.45
2023-03-15T11:47:58.544Z,41.74
2023-03-15T11:50:25.100Z,42.52
2023-03-15T11:52:52.446Z,42.32
2023-03-15T11:55:27.666Z,42.01
2023-03-15T11:57:57.694Z,41.42
2023-03-15T12:00:34.327Z,43.31
2023-03-15T12:03:29.733Z,44.73
2023-03-15T12:06:17.836Z,43.83
2023-03-15T12:08:55.286Z,43.16
2023-03-15T12:11:21.583Z,43.66
2023-03-15T12:13:52.997Z,42.53
2023-03-15T12:16:25.512Z,40.90
2023-03-15T12:18:54.182Z,41.65
2023-03-15T12:21:32.462Z,41.98
2023-03-15T12:24:08.611Z,41.35
2023-03-15T12:26:41.698Z,41.33
2023-03-15T12:29:26.896Z,40.08
2023-03-15T12:31:59.273Z,39.36
2023-03-15T12:34:31.666Z,39.27
2023-03-15T12:37:04.050Z,38.87
2023-03-15T12:39:39.484Z,40.22
2023-03-15T12:42:06.366Z,41.28
2023-03-15T12:44:32.709Z,42.64
2023-03-15T12:47:01.295Z,41.11
2023-03-15T12:49:30.960Z,40.54
2023-03-15T12:52:11.614Z,40.85
2023-03-15T12:54:49.682Z,40.34
2023-03-15T12:57:29.946Z,40.49
2023-03-15T13:00:12.710Z,40.21
2023-03-15T13:03:01.522Z,39.90
2023-03-15T13:05:45.216Z,39.06
2023-03-15T13:08:31.039Z,39.01
2023-03-15T13:11:37.184Z,38.34
2023-03-15T13:14:32.063Z,37.03
2023-03-15T13:17:16.957Z,36.12
2023-03-15T13:19:46.780Z,36.18
2023-03-15T13:22:27.645Z,37.35
2023-03-15T13:25:25.410Z,37.05
2023-03-15T13:28:14.693Z,37.08
2023-03-15T13:30:47.066Z,37.35
2023-03-15T13:33:42.730Z,38.63
2023-03-15T13:36:17.909Z,38.29
2023-03-15T13:38:45.379Z,38.49
2023-03-15T13:41:26.598Z,37.14
2023-03-15T13:43:56.729Z,36.94
2023-03-15T13:46:26.624Z,37.63
2023-03-15T13:48:54.611Z,37.75
2023-03-15T13:51:32.930Z,37.89
2023-03-15T13:54:06.780Z,37.26
2023-03-15T13:56:49.208Z,37.65
2023-03-15T13:59:17.599Z,37.92
2023-03-15T14:01:44.089Z,38.45
2023-03-15T14:04:17.198Z,38.23
2023-03-15T14:06:45.667Z,38.98
2023-03-15T14:09:22.513Z,39.25
2023-03-15T14:12:04.525Z,38.51
2023-03-15T14:14:32.540Z,38.90
2023-03-15T14:17:05.868Z,37.99
2023-03-15T14:19:35.145Z,38.40
2023-03-15T14:22:17.577Z,36.94
2023-03-15T14:24:46.572Z,37.22
2023-03-15T14:27:25.013Z,38.99
2023-03-15T14:30:02.964Z,37.14
2023-03-15T14:32:35.857Z,35.78
2023-03-15T14:35:29.348Z,34.85
2023-03-15T14:38:22.858Z,34.87
2023-03-15T14:40:50.439Z,34.67
2023-03-15T14:43:17.239Z,34.76
2023-03-15T14:45:46.527Z,34.56
2023-03-15T14:48:27.521Z,34.41
2023-03-15T14:50:55.204Z,35.39
2023-03-15T14:53:24.568Z,34.52
2023-03-15T14:55:50.963Z,34.22
2023-03-15T14:58:20.593Z,34.12
2023-03-15T15:00:49.698Z,35.42
2023-03-15T15:03:25.703Z,35.08
2023-03-15T15:05:52.067Z,34.20
2023-03-15T15:08:22.160Z,34.33
2023-03-15T15:10:50.672Z,34.16
2023-03-15T15:13:25.360Z,34.15
2023-03-15T15:15:56.160Z,34.21
2023-03-15T15:18:25.015Z,34.15
2023-03-15T15:20:55.161Z,34.54
2023-03-15T15:23:24.698Z,34.12
2023-03-15T15:25:55.858Z,34.68
2023-03-15T15:28:34.172Z,34.38
2023-03-15T15:31:01.422Z,34.32
2023-03-15T15:33:27.866Z,33.95
2023-03-15T15:35:56.237Z,34.91
2023-03-15T15:38:30.771Z,35.10
2023-03-15T15:40:57.134Z,35.03
2023-03-15T15:43:24.609Z,36.24
2023-03-15T15:45:50.963Z,35.99
2023-03-15T15:48:17.310Z,35.63
2023-03-15T15:50:43.636Z,34.82
2023-03-15T15:53:16.454Z,35.06
2023-03-15T15:55:44.181Z,34.71
2023-03-15T15:58:12.233Z,34.89
2023-03-15T16:00:38.608Z,34.73
2023-03-15T16:03:14.926Z,35.20
2023-03-15T16:05:41.715Z,35.09
2023-03-15T16:08:21.014Z,35.65
2023-03-15T16:10:47.412Z,35.11
2023-03-15T16:13:13.811Z,34.16
2023-03-15T16:15:40.190Z,34.02
2023-03-15T16:18:11.128Z,34.23
2023-03-15T16:20:40.004Z,33.80
2023-03-15T16:23:07.026Z,33.31
2023-03-15T16:25:36.516Z,32.97
2023-03-15T16:28:03.999Z,33.08
2023-03-15T16:30:31.956Z,32.79
2023-03-15T16:32:58.411Z,33.20
2023-03-15T16:35:34.302Z,34.50
2023-03-15T16:38:01.760Z,33.79
2023-03-15T16:40:34.450Z,32.67
2023-03-15T16:43:01.264Z,31.74
2023-03-15T16:45:28.414Z,33.29
2023-03-15T16:47:56.251Z,32.86
2023-03-15T16:50:23.101Z,33.39
2023-03-15T16:52:53.155Z,32.65
2023-03-15T16:55:25.262Z,32.72
2023-03-15T16:57:52.102Z,33.22
2023-03-15T17:00:20.130Z,33.03
2023-03-15T17:02:48.520Z,33.74
2023-03-15T17:05:19.801Z,34.56
2023-03-15T17:07:51.339Z,34.32
2023-03-15T17:10:24.420Z,34.21
2023-03-15T17:12:52.983Z,34.43
2023-03-15T17:15:23.206Z,34.93
2023-03-15T17:17:50.727Z,35.89
2023-03-15T17:20:21.667Z,35.36
2023-03-15T17:22:53.784Z,35.86
2023-03-15T17:25:20.130Z,35.94
2023-03-15T17:27:48.586Z,36.13
2023-03-15T17:30:16.908Z,35.77
2023-03-15T17:32:43.858Z,36.06
2023-03-15T17:35:11.017Z,35.66
2023-03-15T17:37:38.086Z,36.51
2023-03-15T17:40:12.323Z,36.37
2023-03-15T17:42:39.603Z,36.49
2023-03-15T17:45:21.966Z,35.84
2023-03-15T17:47:50.151Z,35.37
2023-03-15T17:50:18.286Z,35.55
2023-03-15T17:52:46.232Z,35.33
2023-03-15T17:55:17.617Z,35.96
2023-03-15T17:57:53.973Z,36.01
2023-03-15T18:00:21.743Z,36.74
2023-03-15T18:02:55.302Z,37.16
2023-03-15T18:05:25.269Z,37.11
2023-03-15T18:07:58.631Z,36.93
2023-03-15T18:10:33.173Z,37.67
2023-03-15T18:12:59.667Z,37.37
2023-03-15T18:15:26.073Z,37.17
2023-03-15T18:17:52.442Z,37.16
2023-03-15T18:20:21.748Z,38.02
2023-03-15T18:22:48.643Z,38.23
2023-03-15T18:25:27.045Z,37.84
2023-03-15T18:27:53.737Z,37.44
2023-03-15T18:30:24.653Z,37.93
2023-03-15T18:32:51.982Z,38.00
2023-03-15T18:35:21.628Z,37.95
2023-03-15T18:37:48.071Z,37.88
2023-03-15T18:40:17.164Z,38.07
2023-03-15T18:42:44.112Z,38.27
2023-03-15T18:45:17.328Z,38.25
2023-03-15T18:47:43.922Z,38.34
2023-03-15T18:50:11.141Z,38.74
2023-03-15T18:52:37.575Z,38.82
2023-03-15T18:55:04.616Z,39.94
2023-03-15T18:57:30.974Z,39.14
2023-03-15T18:59:58.069Z,39.37
2023-03-15T19:02:24.550Z,39.48
2023-03-15T19:04:50.947Z,39.81
2023-03-15T19:07:17.734Z,40.21
2023-03-15T19:09:44.573Z,41.16
2023-03-15T19:12:11.352Z,41.84
2023-03-15T19:14:37.711Z,41.69
2023-03-15T19:17:04.116Z,42.25
2023-03-15T19:19:30.688Z,42.68
2023-03-15T19:21:57.288Z,43.02
2023-03-15T19:24:23.663Z,43.23
2023-03-15T19:26:50.021Z,43.66
2023-03-15T19:29:16.344Z,43.47
2023-03-15T19:31:42.665Z,43.94
2023-03-15T19:34:09.014Z,44.25
2023-03-15T19:36:35.348Z,44.94
2023-03-15T19:39:03.555Z,44.26
2023-03-15T19:41:29.935Z,43.44
2023-03-15T19:43:56.284Z,43.27
2023-03-15T19:46:22.696Z,42.78
2023-03-15T19:48:49.082Z,42.56
2023-03-15T19:51:17.162Z,43.44
2023-03-15T19:53:43.535Z,43.43
2023-03-15T19:56:09.949Z,43.36
2023-03-15T19:58:36.323Z,44.38
2023-03-15T20:01:02.702Z,44.12
2023-03-15T20:03:29.146Z,44.43
2023-03-15T20:05:55.556Z,44.65
2023-03-15T20:08:21.943Z,44.90
2023-03-15T20:10:48.512Z,45.27
2023-03-15T20:13:15.263Z,45.22
2023-03-15T20:15:41.672Z,45.74
2023-03-15T20:18:10.829Z,45.75
2023-03-15T20:20:37.162Z,45.95
2023-03-15T20:23:03.597Z,45.30
2023-03-15T20:25:29.963Z,45.65
2023-03-15T20:27:56.515Z,46.13
2023-03-15T20:30:23.306Z,46.11
2023-03-15T20:32:50.088Z,46.84
2023-03-15T20:35:16.602Z,47.03
2023-03-15T20:37:43.168Z,46.92
2023-03-15T20:40:12.617Z,47.61
2023-03-15T20:42:39.454Z,47.11
2023-03-15T20:45:07.191Z,47.21
2023-03-15T20:47:34.211Z,47.35
2023-03-15T20:50:00.642Z,46.59
2023-03-15T20:52:27.629Z,47.96
2023-03-15T20:54:54.050Z,48.54
2023-03-15T20:57:20.971Z,48.41
2023-03-15T20:59:47.300Z,48.85
2023-03-15T21:02:13.618Z,48.49
2023-03-15T21:04:40.086Z,48.51
2023-03-15T21:07:06.413Z,48.94
2023-03-15T21:09:33.360Z,48.83
2023-03-15T21:12:00.026Z,49.15
2023-03-15T21:14:26.432Z,49.29
2023-03-15T21:16:53.074Z,49.20
2023-03-15T21:19:19.802Z,48.46
2023-03-15T21:21:46.181Z,48.55
2023-03-15T21:24:12.537Z,48.98
2023-03-15T21:26:39.125Z,48.94
2023-03-15T21:29:05.674Z,48.53
2023-03-15T21:31:32.156Z,48.56
2023-03-15T21:33:58.576Z,48.95
2023-03-15T21:36:24.954Z,48.01
2023-03-15T21:38:51.269Z,47.66
2023-03-15T21:41:17.647Z,47.66
2023-03-15T21:43:43.969Z,47.77
2023-03-15T21:46:12.888Z,48.06
2023-03-15T21:48:39.908Z,48.79
2023-03-15T21:51:07.220Z,48.89
2023-03-15T21:53:34.618Z,49.44
2023-03-15T21:56:02.164Z,50.37
2023-03-15T21:58:29.203Z,50.26
2023-03-15T22:01:04.586Z,50.03
2023-03-15T22:03:32.636Z,50.11
2023-03-15T22:05:59.004Z,50.00
2023-03-15T22:08:25.684Z,50.38
2023-03-15T22:10:56.939Z,50.13
2023-03-15T22:13:23.722Z,49.88
2023-03-15T22:15:52.072Z,49.93
2023-03-15T22:18:20.781Z,50.08
2023-03-15T22:20:48.763Z,50.77
2023-03-15T22:23:15.155Z,50.72
2023-03-15T22:25:41.515Z,50.93
2023-03-15T22:28:07.931Z,50.95
2023-03-15T22:30:34.490Z,51.81
2023-03-15T22:33:01.252Z,51.34
2023-03-15T22:35:27.808Z,51.73
2023-03-15T22:37:56.700Z,52.32
2023-03-15T22:40:25.829Z,51.35
2023-03-15T22:42:52.854Z,51.14
2023-03-15T22:45:20.387Z,50.94
2023-03-15T22:47:47.985Z,50.98
2023-03-15T22:50:15.077Z,51.32
2023-03-15T22:52:41.832Z,51.19
2023-03-15T22:55:09.454Z,52.01
2023-03-15T22:57:36.009Z,52.10
2023-03-15T23:00:02.540Z,52.35
2023-03-15T23:02:29.039Z,52.19
2023-03-15T23:04:55.474Z,52.30
2023-03-15T23:07:21.849Z,52.05
2023-03-15T23:09:48.191Z,52.19
2023-03-15T23:12:18.010Z,52.52
2023-03-15T23:14:44.769Z,52.26
2023-03-15T23:17:11.286Z,52.70
2023-03-15T23:19:37.639Z,52.82
2023-03-15T23:22:04.449Z,53.44
2023-03-15T23:24:33.862Z,53.58
2023-03-15T23:27:04.364Z,53.68
2023-03-15T23:29:34.162Z,53.82
2023-03-15T23:32:05.074Z,53.85
2023-03-15T23:34:31.410Z,53.65
2023-03-15T23:36:57.781Z,54.19
2023-03-15T23:39:24.240Z,54.01
2023-03-15T23:41:51.366Z,54.18
2023-03-15T23:44:17.784Z,54.43
2023-03-15T23:46:44.193Z,54.82
2023-03-15T23:49:10.543Z,54.76
2023-03-15T23:51:39.734Z,54.93
2023-03-15T23:54:06.122Z,55.20
2023-03-15T23:56:32.658Z,55.65
2023-03-15T23:58:59.005Z,55.36
